sensor_id;sensor_type;location;lat;lon;timestamp;temperature;humidity
20070;DHT22;10195;50.868;4.382;2023-04-16T00:00:25;8.50;99.90
20070;DHT22;10195;50.868;4.382;2023-04-16T00:02:51;8.40;99.90
20070;DHT22;10195;50.868;4.382;2023-04-16T00:05:16;8.40;99.90
20070;DHT22;10195;50.868;4.382;2023-04-16T00:07:42;8.30;99.90
20070;DHT22;10195;50.868;4.382;2023-04-16T00:10:08;8.40;99.90
20070;DHT22;10195;50.868;4.382;2023-04-16T00:12:33;8.30;99.90
20070;DHT22;10195;50.868;4.382;2023-04-16T00:14:59;8.30;99.90
20070;DHT22;10195;50.868;4.382;2023-04-16T00:17:25;8.40;99.90
20070;DHT22;10195;50.868;4.382;2023-04-16T00:19:51;8.40;99.90
20070;DHT22;10195;50.868;4.382;2023-04-16T00:22:16;8.40;99.90
20070;DHT22;10195;50.868;4.382;2023-04-16T00:24:42;8.30;99.90
20070;DHT22;10195;50.868;4.382;2023-04-16T00:27:08;8.40;99.90
20070;DHT22;10195;50.868;4.382;2023-04-16T00:29:34;8.40;99.90
20070;DHT22;10195;50.868;4.382;2023-04-16T00:31:59;8.40;99.90
20070;DHT22;10195;50.868;4.382;2023-04-16T00:34:25;8.50;99.90
20070;DHT22;10195;50.868;4.382;2023-04-16T00:36:51;8.50;99.90
20070;DHT22;10195;50.868;4.382;2023-04-16T00:39:17;8.50;99.90
20070;DHT22;10195;50.868;4.382;2023-04-16T00:41:43;8.50;99.90
20070;DHT22;10195;50.868;4.382;2023-04-16T00:44:09;8.50;99.90
20070;DHT22;10195;50.868;4.382;2023-04-16T00:46:36;8.50;99.90
20070;DHT22;10195;50.868;4.382;2023-04-16T00:49:02;8.50;99.90
20070;DHT22;10195;50.868;4.382;2023-04-16T00:51:28;8.40;99.90
20070;DHT22;10195;50.868;4.382;2023-04-16T00:53:56;8.50;99.90
20070;DHT22;10195;50.868;4.382;2023-04-16T00:56:23;8.50;99.90
20070;DHT22;10195;50.868;4.382;2023-04-16T00:58:49;8.60;99.90
20070;DHT22;10195;50.868;4.382;2023-04-16T01:01:15;8.60;99.90
20070;DHT22;10195;50.868;4.382;2023-04-16T01:03:46;8.60;99.90
20070;DHT22;10195;50.868;4.382;2023-04-16T01:06:12;8.50;99.90
20070;DHT22;10195;50.868;4.382;2023-04-16T01:08:38;8.50;99.90
20070;DHT22;10195;50.868;4.382;2023-04-16T01:11:04;8.50;99.90
20070;DHT22;10195;50.868;4.382;2023-04-16T01:13:31;8.50;99.90
20070;DHT22;10195;50.868;4.382;2023-04-16T01:15:58;8.40;99.90
20070;DHT22;10195;50.868;4.382;2023-04-16T01:18:25;8.30;99.90
20070;DHT22;10195;50.868;4.382;2023-04-16T01:20:51;8.30;99.90
20070;DHT22;10195;50.868;4.382;2023-04-16T01:23:17;8.30;99.90
20070;DHT22;10195;50.868;4.382;2023-04-16T01:25:43;8.30;99.90
20070;DHT22;10195;50.868;4.382;2023-04-16T01:28:09;8.30;99.90
20070;DHT22;10195;50.868;4.382;2023-04-16T01:30:35;8.30;99.90
20070;DHT22;10195;50.868;4.382;2023-04-16T01:33:01;8.40;99.90
20070;DHT22;10195;50.868;4.382;2023-04-16T01:35:27;8.30;99.90
20070;DHT22;10195;50.868;4.382;2023-04-16T01:37:53;8.30;99.90
20070;DHT22;10195;50.868;4.382;2023-04-16T01:40:19;8.40;99.90
20070;DHT22;10195;50.868;4.382;2023-04-16T01:42:44;8.40;99.90
20070;DHT22;10195;50.868;4.382;2023-04-16T01:45:11;8.40;99.90
20070;DHT22;10195;50.868;4.382;2023-04-16T01:47:37;8.40;99.90
20070;DHT22;10195;50.868;4.382;2023-04-16T01:50:03;8.50;99.90
20070;DHT22;10195;50.868;4.382;2023-04-16T01:52:29;8.40;99.90
20070;DHT22;10195;50.868;4.382;2023-04-16T01:54:55;8.50;99.90
20070;DHT22;10195;50.868;4.382;2023-04-16T01:57:21;8.60;99.90
20070;DHT22;10195;50.868;4.382;2023-04-16T01:59:47;8.70;99.90
20070;DHT22;10195;50.868;4.382;2023-04-16T02:02:14;8.60;99.90
20070;DHT22;10195;50.868;4.382;2023-04-16T02:04:42;8.70;99.90
20070;DHT22;10195;50.868;4.382;2023-04-16T02:07:09;8.70;99.90
20070;DHT22;10195;50.868;4.382;2023-04-16T02:09:36;8.60;99.90
20070;DHT22;10195;50.868;4.382;2023-04-16T02:12:02;8.60;99.90
20070;DHT22;10195;50.868;4.382;2023-04-16T02:14:28;8.60;99.90
20070;DHT22;10195;50.868;4.382;2023-04-16T02:16:54;8.60;99.90
20070;DHT22;10195;50.868;4.382;2023-04-16T02:19:20;8.60;99.90
20070;DHT22;10195;50.868;4.382;2023-04-16T02:21:46;8.70;99.90
20070;DHT22;10195;50.868;4.382;2023-04-16T02:24:12;8.60;99.90
20070;DHT22;10195;50.868;4.382;2023-04-16T02:26:38;8.60;99.90
20070;DHT22;10195;50.868;4.382;2023-04-16T02:29:04;8.70;99.90
20070;DHT22;10195;50.868;4.382;2023-04-16T02:31:30;8.80;99.90
20070;DHT22;10195;50.868;4.382;2023-04-16T02:33:56;8.70;99.90
20070;DHT22;10195;50.868;4.382;2023-04-16T02:36:24;8.70;99.90
20070;DHT22;10195;50.868;4.382;2023-04-16T02:38:54;8.80;99.90
20070;DHT22;10195;50.868;4.382;2023-04-16T02:41:20;8.70;99.90
20070;DHT22;10195;50.868;4.382;2023-04-16T02:43:46;8.70;99.90
20070;DHT22;10195;50.868;4.382;2023-04-16T02:46:11;8.70;99.90
20070;DHT22;10195;50.868;4.382;2023-04-16T02:48:38;8.80;99.90
20070;DHT22;10195;50.868;4.382;2023-04-16T02:51:03;8.80;99.90
20070;DHT22;10195;50.868;4.382;2023-04-16T02:53:29;8.80;99.90
20070;DHT22;10195;50.868;4.382;2023-04-16T02:55:55;8.80;99.90
20070;DHT22;10195;50.868;4.382;2023-04-16T02:58:23;8.80;99.90
20070;DHT22;10195;50.868;4.382;2023-04-16T03:00:49;8.80;99.90
20070;DHT22;10195;50.868;4.382;2023-04-16T03:03:15;8.90;99.90
20070;DHT22;10195;50.868;4.382;2023-04-16T03:05:41;8.80;99.90
20070;DHT22;10195;50.868;4.382;2023-04-16T03:08:07;8.80;99.90
20070;DHT22;10195;50.868;4.382;2023-04-16T03:10:33;8.70;99.90
20070;DHT22;10195;50.868;4.382;2023-04-16T03:13:00;8.80;99.90
20070;DHT22;10195;50.868;4.382;2023-04-16T03:15:25;8.80;99.90
20070;DHT22;10195;50.868;4.382;2023-04-16T03:17:52;8.80;99.90
20070;DHT22;10195;50.868;4.382;2023-04-16T03:20:18;8.70;99.90
20070;DHT22;10195;50.868;4.382;2023-04-16T03:22:47;8.60;99.90
20070;DHT22;10195;50.868;4.382;2023-04-16T03:25:13;8.70;99.90
20070;DHT22;10195;50.868;4.382;2023-04-16T03:27:39;8.80;99.90
20070;DHT22;10195;50.868;4.382;2023-04-16T03:30:15;8.80;99.90
20070;DHT22;10195;50.868;4.382;2023-04-16T03:32:40;8.90;99.90
20070;DHT22;10195;50.868;4.382;2023-04-16T03:35:07;9.00;99.90
20070;DHT22;10195;50.868;4.382;2023-04-16T03:37:35;8.90;99.90
20070;DHT22;10195;50.868;4.382;2023-04-16T03:40:00;8.80;99.90
20070;DHT22;10195;50.868;4.382;2023-04-16T03:42:26;8.70;99.90
20070;DHT22;10195;50.868;4.382;2023-04-16T03:44:52;8.80;99.90
20070;DHT22;10195;50.868;4.382;2023-04-16T03:47:19;8.80;99.90
20070;DHT22;10195;50.868;4.382;2023-04-16T03:49:45;8.80;99.90
20070;DHT22;10195;50.868;4.382;2023-04-16T03:52:10;8.80;99.90
20070;DHT22;10195;50.868;4.382;2023-04-16T03:54:36;8.80;99.90
20070;DHT22;10195;50.868;4.382;2023-04-16T03:57:02;8.90;99.90
20070;DHT22;10195;50.868;4.382;2023-04-16T03:59:27;8.90;99.90
20070;DHT22;10195;50.868;4.382;2023-04-16T04:01:53;8.80;99.90
20070;DHT22;10195;50.868;4.382;2023-04-16T04:04:19;8.80;99.90
20070;DHT22;10195;50.868;4.382;2023-04-16T04:06:45;8.80;99.90
20070;DHT22;10195;50.868;4.382;2023-04-16T04:09:12;8.70;99.90
20070;DHT22;10195;50.868;4.382;2023-04-16T04:11:37;8.70;99.90
20070;DHT22;10195;50.868;4.382;2023-04-16T04:14:03;8.70;99.90
20070;DHT22;10195;50.868;4.382;2023-04-16T04:16:32;8.80;99.90
20070;DHT22;10195;50.868;4.382;2023-04-16T04:18:57;8.70;99.90
20070;DHT22;10195;50.868;4.382;2023-04-16T04:21:25;8.60;99.90
20070;DHT22;10195;50.868;4.382;2023-04-16T04:23:51;8.50;99.90
20070;DHT22;10195;50.868;4.382;2023-04-16T04:26:17;8.30;99.90
20070;DHT22;10195;50.868;4.382;2023-04-16T04:28:43;8.30;99.90
20070;DHT22;10195;50.868;4.382;2023-04-16T04:31:09;8.40;99.90
20070;DHT22;10195;50.868;4.382;2023-04-16T04:33:34;8.50;99.90
20070;DHT22;10195;50.868;4.382;2023-04-16T04:36:01;8.50;99.90
20070;DHT22;10195;50.868;4.382;2023-04-16T04:38:26;8.50;99.90
20070;DHT22;10195;50.868;4.382;2023-04-16T04:40:52;8.50;99.90
20070;DHT22;10195;50.868;4.382;2023-04-16T04:43:19;8.50;99.90
20070;DHT22;10195;50.868;4.382;2023-04-16T04:45:45;8.40;99.90
20070;DHT22;10195;50.868;4.382;2023-04-16T04:48:11;8.40;99.90
20070;DHT22;10195;50.868;4.382;2023-04-16T04:50:37;8.50;99.90
20070;DHT22;10195;50.868;4.382;2023-04-16T04:53:03;8.50;99.90
20070;DHT22;10195;50.868;4.382;2023-04-16T04:55:35;8.60;99.90
20070;DHT22;10195;50.868;4.382;2023-04-16T04:58:03;8.70;99.90
20070;DHT22;10195;50.868;4.382;2023-04-16T05:00:29;8.80;99.90
20070;DHT22;10195;50.868;4.382;2023-04-16T05:02:55;8.90;99.90
20070;DHT22;10195;50.868;4.382;2023-04-16T05:05:21;8.80;99.90
20070;DHT22;10195;50.868;4.382;2023-04-16T05:07:47;8.70;99.90
20070;DHT22;10195;50.868;4.382;2023-04-16T05:10:13;8.80;99.90
20070;DHT22;10195;50.868;4.382;2023-04-16T05:12:39;8.70;99.90
20070;DHT22;10195;50.868;4.382;2023-04-16T05:15:05;8.80;99.90
20070;DHT22;10195;50.868;4.382;2023-04-16T05:17:30;8.80;99.90
20070;DHT22;10195;50.868;4.382;2023-04-16T05:19:56;8.80;99.90
20070;DHT22;10195;50.868;4.382;2023-04-16T05:22:22;8.90;99.90
20070;DHT22;10195;50.868;4.382;2023-04-16T05:24:47;8.70;99.90
20070;DHT22;10195;50.868;4.382;2023-04-16T05:27:13;8.70;99.90
20070;DHT22;10195;50.868;4.382;2023-04-16T05:29:39;8.60;99.90
20070;DHT22;10195;50.868;4.382;2023-04-16T05:32:05;8.60;99.90
20070;DHT22;10195;50.868;4.382;2023-04-16T05:34:31;8.70;99.90
20070;DHT22;10195;50.868;4.382;2023-04-16T05:36:56;8.60;99.90
20070;DHT22;10195;50.868;4.382;2023-04-16T05:39:22;8.70;99.90
20070;DHT22;10195;50.868;4.382;2023-04-16T05:41:47;8.60;99.90
20070;DHT22;10195;50.868;4.382;2023-04-16T05:44:13;8.70;99.90
20070;DHT22;10195;50.868;4.382;2023-04-16T05:46:39;8.80;99.90
20070;DHT22;10195;50.868;4.382;2023-04-16T05:49:05;8.90;99.90
20070;DHT22;10195;50.868;4.382;2023-04-16T05:51:31;8.80;99.90
20070;DHT22;10195;50.868;4.382;2023-04-16T05:53:57;8.70;99.90
20070;DHT22;10195;50.868;4.382;2023-04-16T05:56:23;8.70;99.90
20070;DHT22;10195;50.868;4.382;2023-04-16T05:58:51;8.70;99.90
20070;DHT22;10195;50.868;4.382;2023-04-16T06:01:17;8.70;99.90
20070;DHT22;10195;50.868;4.382;2023-04-16T06:03:43;8.60;99.90
20070;DHT22;10195;50.868;4.382;2023-04-16T06:06:09;8.60;99.90
20070;DHT22;10195;50.868;4.382;2023-04-16T06:08:35;8.60;99.90
20070;DHT22;10195;50.868;4.382;2023-04-16T06:11:01;8.70;99.90
20070;DHT22;10195;50.868;4.382;2023-04-16T06:13:27;8.70;99.90
20070;DHT22;10195;50.868;4.382;2023-04-16T06:15:53;8.80;99.90
20070;DHT22;10195;50.868;4.382;2023-04-16T06:18:19;8.90;99.90
20070;DHT22;10195;50.868;4.382;2023-04-16T06:20:44;8.70;99.90
20070;DHT22;10195;50.868;4.382;2023-04-16T06:23:10;8.60;99.90
20070;DHT22;10195;50.868;4.382;2023-04-16T06:25:36;8.60;99.90
20070;DHT22;10195;50.868;4.382;2023-04-16T06:28:01;8.50;99.90
20070;DHT22;10195;50.868;4.382;2023-04-16T06:30:30;8.50;99.90
20070;DHT22;10195;50.868;4.382;2023-04-16T06:32:56;8.40;99.90
20070;DHT22;10195;50.868;4.382;2023-04-16T06:35:22;8.30;99.90
20070;DHT22;10195;50.868;4.382;2023-04-16T06:37:48;8.20;99.90
20070;DHT22;10195;50.868;4.382;2023-04-16T06:40:13;8.30;99.90
20070;DHT22;10195;50.868;4.382;2023-04-16T06:42:39;8.20;99.90
20070;DHT22;10195;50.868;4.382;2023-04-16T06:45:05;8.30;99.90
20070;DHT22;10195;50.868;4.382;2023-04-16T06:47:31;8.30;99.90
20070;DHT22;10195;50.868;4.382;2023-04-16T06:49:57;8.30;99.90
20070;DHT22;10195;50.868;4.382;2023-04-16T06:52:23;8.30;99.90
20070;DHT22;10195;50.868;4.382;2023-04-16T06:54:48;8.40;99.90
20070;DHT22;10195;50.868;4.382;2023-04-16T06:57:14;8.40;99.90
20070;DHT22;10195;50.868;4.382;2023-04-16T06:59:40;8.50;99.90
20070;DHT22;10195;50.868;4.382;2023-04-16T07:02:09;8.40;99.90
20070;DHT22;10195;50.868;4.382;2023-04-16T07:04:35;8.40;99.90
20070;DHT22;10195;50.868;4.382;2023-04-16T07:07:00;8.40;99.90
20070;DHT22;10195;50.868;4.382;2023-04-16T07:09:26;8.30;99.90
20070;DHT22;10195;50.868;4.382;2023-04-16T07:11:53;8.30;99.90
20070;DHT22;10195;50.868;4.382;2023-04-16T07:14:18;8.40;99.90
20070;DHT22;10195;50.868;4.382;2023-04-16T07:16:44;8.40;99.90
20070;DHT22;10195;50.868;4.382;2023-04-16T07:19:10;8.50;99.90
20070;DHT22;10195;50.868;4.382;2023-04-16T07:21:35;8.40;99.90
20070;DHT22;10195;50.868;4.382;2023-04-16T07:24:02;8.50;99.90
20070;DHT22;10195;50.868;4.382;2023-04-16T07:26:28;8.50;99.90
20070;DHT22;10195;50.868;4.382;2023-04-16T07:28:53;8.50;99.90
20070;DHT22;10195;50.868;4.382;2023-04-16T07:31:19;8.40;99.90
20070;DHT22;10195;50.868;4.382;2023-04-16T07:33:45;8.50;99.90
20070;DHT22;10195;50.868;4.382;2023-04-16T07:36:10;8.50;99.90
20070;DHT22;10195;50.868;4.382;2023-04-16T07:38:36;8.50;99.90
20070;DHT22;10195;50.868;4.382;2023-04-16T07:41:02;8.70;99.90
20070;DHT22;10195;50.868;4.382;2023-04-16T07:43:28;8.80;99.90
20070;DHT22;10195;50.868;4.382;2023-04-16T07:45:54;8.80;99.90
20070;DHT22;10195;50.868;4.382;2023-04-16T07:48:20;8.70;99.90
20070;DHT22;10195;50.868;4.382;2023-04-16T07:50:46;8.80;99.90
20070;DHT22;10195;50.868;4.382;2023-04-16T07:53:12;9.00;99.90
20070;DHT22;10195;50.868;4.382;2023-04-16T07:55:37;9.00;99.90
20070;DHT22;10195;50.868;4.382;2023-04-16T07:58:03;9.00;99.90
20070;DHT22;10195;50.868;4.382;2023-04-16T08:00:30;9.00;99.90
20070;DHT22;10195;50.868;4.382;2023-04-16T08:02:58;9.10;99.90
20070;DHT22;10195;50.868;4.382;2023-04-16T08:05:24;9.00;99.90
20070;DHT22;10195;50.868;4.382;2023-04-16T08:07:50;9.10;99.90
20070;DHT22;10195;50.868;4.382;2023-04-16T08:10:15;8.90;99.90
20070;DHT22;10195;50.868;4.382;2023-04-16T08:12:41;8.90;99.90
20070;DHT22;10195;50.868;4.382;2023-04-16T08:15:07;8.90;99.90
20070;DHT22;10195;50.868;4.382;2023-04-16T08:17:33;8.80;99.90
20070;DHT22;10195;50.868;4.382;2023-04-16T08:19:59;8.80;99.90
20070;DHT22;10195;50.868;4.382;2023-04-16T08:22:25;8.90;99.90
20070;DHT22;10195;50.868;4.382;2023-04-16T08:24:51;8.80;99.90
20070;DHT22;10195;50.868;4.382;2023-04-16T08:27:17;8.90;99.90
20070;DHT22;10195;50.868;4.382;2023-04-16T08:29:43;8.80;99.90
20070;DHT22;10195;50.868;4.382;2023-04-16T08:32:08;8.80;99.90
20070;DHT22;10195;50.868;4.382;2023-04-16T08:34:35;8.80;99.90
20070;DHT22;10195;50.868;4.382;2023-04-16T08:37:01;8.70;99.90
20070;DHT22;10195;50.868;4.382;2023-04-16T08:39:27;8.60;99.90
20070;DHT22;10195;50.868;4.382;2023-04-16T08:41:53;8.70;99.90
20070;DHT22;10195;50.868;4.382;2023-04-16T08:44:27;8.80;99.90
20070;DHT22;10195;50.868;4.382;2023-04-16T08:46:56;8.70;99.90
20070;DHT22;10195;50.868;4.382;2023-04-16T08:49:25;8.70;99.90
20070;DHT22;10195;50.868;4.382;2023-04-16T08:51:53;9.00;99.90
20070;DHT22;10195;50.868;4.382;2023-04-16T08:57:24;9.10;99.90
20070;DHT22;10195;50.868;4.382;2023-04-16T08:59:53;9.00;99.90
20070;DHT22;10195;50.868;4.382;2023-04-16T09:02:19;9.20;99.90
20070;DHT22;10195;50.868;4.382;2023-04-16T09:04:46;9.20;99.90
20070;DHT22;10195;50.868;4.382;2023-04-16T09:07:15;9.20;99.90
20070;DHT22;10195;50.868;4.382;2023-04-16T09:09:42;9.20;99.90
20070;DHT22;10195;50.868;4.382;2023-04-16T09:12:09;9.20;99.90
20070;DHT22;10195;50.868;4.382;2023-04-16T09:14:35;9.10;99.90
20070;DHT22;10195;50.868;4.382;2023-04-16T09:17:02;9.20;99.90
20070;DHT22;10195;50.868;4.382;2023-04-16T09:19:28;9.30;99.90
20070;DHT22;10195;50.868;4.382;2023-04-16T09:21:54;9.20;99.90
20070;DHT22;10195;50.868;4.382;2023-04-16T09:24:20;9.00;99.90
20070;DHT22;10195;50.868;4.382;2023-04-16T09:26:47;8.90;99.90
20070;DHT22;10195;50.868;4.382;2023-04-16T09:29:33;8.90;99.90
20070;DHT22;10195;50.868;4.382;2023-04-16T09:32:03;9.00;99.90
20070;DHT22;10195;50.868;4.382;2023-04-16T09:34:31;9.10;99.90
20070;DHT22;10195;50.868;4.382;2023-04-16T09:37:18;9.10;99.90
20070;DHT22;10195;50.868;4.382;2023-04-16T09:42:24;9.10;99.90
20070;DHT22;10195;50.868;4.382;2023-04-16T09:44:52;9.10;99.90
20070;DHT22;10195;50.868;4.382;2023-04-16T09:47:19;9.00;99.90
20070;DHT22;10195;50.868;4.382;2023-04-16T09:49:44;9.00;99.90
20070;DHT22;10195;50.868;4.382;2023-04-16T09:52:21;9.00;99.90
20070;DHT22;10195;50.868;4.382;2023-04-16T09:54:49;9.10;99.90
20070;DHT22;10195;50.868;4.382;2023-04-16T09:57:23;9.10;99.90
20070;DHT22;10195;50.868;4.382;2023-04-16T10:00:02;9.10;99.90
20070;DHT22;10195;50.868;4.382;2023-04-16T10:02:29;9.10;99.90
20070;DHT22;10195;50.868;4.382;2023-04-16T10:04:56;9.20;99.90
20070;DHT22;10195;50.868;4.382;2023-04-16T10:07:28;9.30;99.90
20070;DHT22;10195;50.868;4.382;2023-04-16T10:09:54;9.30;99.90
20070;DHT22;10195;50.868;4.382;2023-04-16T10:12:21;9.40;99.90
20070;DHT22;10195;50.868;4.382;2023-04-16T10:14:46;9.30;99.90
20070;DHT22;10195;50.868;4.382;2023-04-16T10:17:12;9.30;99.90
20070;DHT22;10195;50.868;4.382;2023-04-16T10:19:38;9.40;99.90
20070;DHT22;10195;50.868;4.382;2023-04-16T10:22:04;9.60;99.90
20070;DHT22;10195;50.868;4.382;2023-04-16T10:24:32;9.60;99.90
20070;DHT22;10195;50.868;4.382;2023-04-16T10:26:59;9.60;99.90
20070;DHT22;10195;50.868;4.382;2023-04-16T10:29:26;9.70;99.90
20070;DHT22;10195;50.868;4.382;2023-04-16T10:31:53;9.60;99.90
20070;DHT22;10195;50.868;4.382;2023-04-16T10:34:20;9.70;99.90
20070;DHT22;10195;50.868;4.382;2023-04-16T10:36:50;9.90;99.90
20070;DHT22;10195;50.868;4.382;2023-04-16T10:39:20;10.00;99.90
20070;DHT22;10195;50.868;4.382;2023-04-16T10:41:46;10.00;99.90
20070;DHT22;10195;50.868;4.382;2023-04-16T10:44:12;9.80;99.90
20070;DHT22;10195;50.868;4.382;2023-04-16T10:46:42;9.80;99.90
20070;DHT22;10195;50.868;4.382;2023-04-16T10:49:27;9.80;99.90
20070;DHT22;10195;50.868;4.382;2023-04-16T10:51:55;9.50;99.90
20070;DHT22;10195;50.868;4.382;2023-04-16T10:54:31;9.50;99.90
20070;DHT22;10195;50.868;4.382;2023-04-16T10:57:06;9.50;99.90
20070;DHT22;10195;50.868;4.382;2023-04-16T10:59:35;9.40;99.90
20070;DHT22;10195;50.868;4.382;2023-04-16T11:02:24;9.60;99.90
20070;DHT22;10195;50.868;4.382;2023-04-16T11:04:55;9.70;99.90
20070;DHT22;10195;50.868;4.382;2023-04-16T11:07:33;9.80;99.90
20070;DHT22;10195;50.868;4.382;2023-04-16T11:12:34;9.80;99.90
20070;DHT22;10195;50.868;4.382;2023-04-16T11:15:05;9.80;99.90
20070;DHT22;10195;50.868;4.382;2023-04-16T11:17:38;9.70;99.90
20070;DHT22;10195;50.868;4.382;2023-04-16T11:20:06;9.60;99.90
20070;DHT22;10195;50.868;4.382;2023-04-16T11:22:35;9.70;99.90
20070;DHT22;10195;50.868;4.382;2023-04-16T11:25:01;9.70;99.90
20070;DHT22;10195;50.868;4.382;2023-04-16T11:27:29;9.70;99.90
20070;DHT22;10195;50.868;4.382;2023-04-16T11:30:03;9.80;99.90
20070;DHT22;10195;50.868;4.382;2023-04-16T11:32:31;9.70;99.90
20070;DHT22;10195;50.868;4.382;2023-04-16T11:34:57;9.60;99.90
20070;DHT22;10195;50.868;4.382;2023-04-16T11:37:31;9.50;99.90
20070;DHT22;10195;50.868;4.382;2023-04-16T11:40:02;9.60;99.90
20070;DHT22;10195;50.868;4.382;2023-04-16T11:42:32;9.60;99.90
20070;DHT22;10195;50.868;4.382;2023-04-16T11:45:02;9.60;99.90
20070;DHT22;10195;50.868;4.382;2023-04-16T11:47:30;9.70;99.90
20070;DHT22;10195;50.868;4.382;2023-04-16T11:49:57;9.70;99.90
20070;DHT22;10195;50.868;4.382;2023-04-16T11:52:31;9.60;99.90
20070;DHT22;10195;50.868;4.382;2023-04-16T11:54:58;9.60;99.90
20070;DHT22;10195;50.868;4.382;2023-04-16T11:57:28;9.80;99.90
20070;DHT22;10195;50.868;4.382;2023-04-16T11:59:58;9.80;99.90
20070;DHT22;10195;50.868;4.382;2023-04-16T12:02:42;9.90;99.90
20070;DHT22;10195;50.868;4.382;2023-04-16T12:05:34;9.90;99.90
20070;DHT22;10195;50.868;4.382;2023-04-16T12:08:02;9.90;99.90
20070;DHT22;10195;50.868;4.382;2023-04-16T12:10:29;9.70;99.90
20070;DHT22;10195;50.868;4.382;2023-04-16T12:13:15;9.70;99.90
20070;DHT22;10195;50.868;4.382;2023-04-16T12:15:50;9.80;99.90
20070;DHT22;10195;50.868;4.382;2023-04-16T12:18:17;9.60;99.90
20070;DHT22;10195;50.868;4.382;2023-04-16T12:20:44;9.60;99.90
20070;DHT22;10195;50.868;4.382;2023-04-16T12:23:21;9.50;99.90
20070;DHT22;10195;50.868;4.382;2023-04-16T12:25:46;9.50;99.90
20070;DHT22;10195;50.868;4.382;2023-04-16T12:28:31;9.50;99.90
20070;DHT22;10195;50.868;4.382;2023-04-16T12:30:57;9.50;99.90
20070;DHT22;10195;50.868;4.382;2023-04-16T12:33:23;9.60;99.90
20070;DHT22;10195;50.868;4.382;2023-04-16T12:35:49;9.60;99.90
20070;DHT22;10195;50.868;4.382;2023-04-16T12:38:16;9.60;99.90
20070;DHT22;10195;50.868;4.382;2023-04-16T12:40:42;9.50;99.90
20070;DHT22;10195;50.868;4.382;2023-04-16T12:43:08;9.60;99.90
20070;DHT22;10195;50.868;4.382;2023-04-16T12:45:35;9.60;99.90
20070;DHT22;10195;50.868;4.382;2023-04-16T12:48:01;9.60;99.90
20070;DHT22;10195;50.868;4.382;2023-04-16T12:50:26;9.70;99.90
20070;DHT22;10195;50.868;4.382;2023-04-16T12:52:56;9.70;99.90
20070;DHT22;10195;50.868;4.382;2023-04-16T12:55:23;9.70;99.90
20070;DHT22;10195;50.868;4.382;2023-04-16T12:57:49;9.70;99.90
20070;DHT22;10195;50.868;4.382;2023-04-16T13:00:17;9.80;99.90
20070;DHT22;10195;50.868;4.382;2023-04-16T13:02:44;9.80;99.90
20070;DHT22;10195;50.868;4.382;2023-04-16T13:05:10;9.90;99.90
20070;DHT22;10195;50.868;4.382;2023-04-16T13:07:37;9.90;99.90
20070;DHT22;10195;50.868;4.382;2023-04-16T13:10:05;10.00;99.90
20070;DHT22;10195;50.868;4.382;2023-04-16T13:12:30;10.10;99.90
20070;DHT22;10195;50.868;4.382;2023-04-16T13:14:57;10.00;99.90
20070;DHT22;10195;50.868;4.382;2023-04-16T13:17:23;9.90;99.90
20070;DHT22;10195;50.868;4.382;2023-04-16T13:19:49;9.80;99.90
20070;DHT22;10195;50.868;4.382;2023-04-16T13:22:15;9.80;99.90
20070;DHT22;10195;50.868;4.382;2023-04-16T13:24:40;9.90;99.90
20070;DHT22;10195;50.868;4.382;2023-04-16T13:27:06;9.90;99.90
20070;DHT22;10195;50.868;4.382;2023-04-16T13:29:33;9.90;99.90
20070;DHT22;10195;50.868;4.382;2023-04-16T13:32:01;9.90;99.90
20070;DHT22;10195;50.868;4.382;2023-04-16T13:34:27;10.00;99.90
20070;DHT22;10195;50.868;4.382;2023-04-16T13:36:52;10.00;99.90
20070;DHT22;10195;50.868;4.382;2023-04-16T13:39:19;10.20;99.90
20070;DHT22;10195;50.868;4.382;2023-04-16T13:41:45;10.20;99.90
20070;DHT22;10195;50.868;4.382;2023-04-16T13:44:13;10.20;99.90
20070;DHT22;10195;50.868;4.382;2023-04-16T13:46:39;10.20;99.90
20070;DHT22;10195;50.868;4.382;2023-04-16T13:49:05;10.20;99.90
20070;DHT22;10195;50.868;4.382;2023-04-16T13:51:31;10.30;99.90
20070;DHT22;10195;50.868;4.382;2023-04-16T13:53:57;10.30;99.90
20070;DHT22;10195;50.868;4.382;2023-04-16T13:56:27;10.40;99.90
20070;DHT22;10195;50.868;4.382;2023-04-16T13:58:52;10.40;99.90
20070;DHT22;10195;50.868;4.382;2023-04-16T14:01:18;10.40;99.90
20070;DHT22;10195;50.868;4.382;2023-04-16T14:03:44;10.30;99.90
20070;DHT22;10195;50.868;4.382;2023-04-16T14:06:10;10.30;99.90
20070;DHT22;10195;50.868;4.382;2023-04-16T14:08:35;10.30;99.90
20070;DHT22;10195;50.868;4.382;2023-04-16T14:11:02;10.40;99.90
20070;DHT22;10195;50.868;4.382;2023-04-16T14:13:30;10.40;99.90
20070;DHT22;10195;50.868;4.382;2023-04-16T14:15:56;10.40;99.90
20070;DHT22;10195;50.868;4.382;2023-04-16T14:18:22;10.50;99.90
20070;DHT22;10195;50.868;4.382;2023-04-16T14:20:49;10.50;99.90
20070;DHT22;10195;50.868;4.382;2023-04-16T14:23:15;10.60;99.90
20070;DHT22;10195;50.868;4.382;2023-04-16T14:25:40;10.60;99.90
20070;DHT22;10195;50.868;4.382;2023-04-16T14:28:06;10.60;99.90
20070;DHT22;10195;50.868;4.382;2023-04-16T14:30:33;10.80;99.90
20070;DHT22;10195;50.868;4.382;2023-04-16T14:32:59;10.90;99.90
20070;DHT22;10195;50.868;4.382;2023-04-16T14:35:24;11.10;99.90
20070;DHT22;10195;50.868;4.382;2023-04-16T14:37:51;11.00;99.90
20070;DHT22;10195;50.868;4.382;2023-04-16T14:40:17;10.70;99.90
20070;DHT22;10195;50.868;4.382;2023-04-16T14:42:42;10.70;99.90
20070;DHT22;10195;50.868;4.382;2023-04-16T14:45:08;10.80;99.90
20070;DHT22;10195;50.868;4.382;2023-04-16T14:47:35;11.20;99.90
20070;DHT22;10195;50.868;4.382;2023-04-16T14:50:02;11.30;99.90
20070;DHT22;10195;50.868;4.382;2023-04-16T14:52:30;11.20;99.90
20070;DHT22;10195;50.868;4.382;2023-04-16T14:54:56;11.00;99.90
20070;DHT22;10195;50.868;4.382;2023-04-16T14:57:22;10.70;99.90
20070;DHT22;10195;50.868;4.382;2023-04-16T14:59:48;10.80;99.90
20070;DHT22;10195;50.868;4.382;2023-04-16T15:02:14;10.90;99.90
20070;DHT22;10195;50.868;4.382;2023-04-16T15:04:39;11.00;99.90
20070;DHT22;10195;50.868;4.382;2023-04-16T15:07:05;11.20;99.90
20070;DHT22;10195;50.868;4.382;2023-04-16T15:09:33;11.40;99.90
20070;DHT22;10195;50.868;4.382;2023-04-16T15:12:01;11.30;99.90
20070;DHT22;10195;50.868;4.382;2023-04-16T15:14:27;10.90;99.90
20070;DHT22;10195;50.868;4.382;2023-04-16T15:16:52;10.80;99.90
20070;DHT22;10195;50.868;4.382;2023-04-16T15:19:18;10.90;99.90
20070;DHT22;10195;50.868;4.382;2023-04-16T15:21:44;10.90;99.90
20070;DHT22;10195;50.868;4.382;2023-04-16T15:24:10;10.80;99.90
20070;DHT22;10195;50.868;4.382;2023-04-16T15:26:36;10.80;99.90
20070;DHT22;10195;50.868;4.382;2023-04-16T15:29:02;10.80;99.90
20070;DHT22;10195;50.868;4.382;2023-04-16T15:31:28;10.90;99.90
20070;DHT22;10195;50.868;4.382;2023-04-16T15:33:54;10.90;99.90
20070;DHT22;10195;50.868;4.382;2023-04-16T15:36:20;11.00;99.90
20070;DHT22;10195;50.868;4.382;2023-04-16T15:38:46;10.90;99.90
20070;DHT22;10195;50.868;4.382;2023-04-16T15:41:12;10.90;99.90
20070;DHT22;10195;50.868;4.382;2023-04-16T15:43:38;10.80;99.90
20070;DHT22;10195;50.868;4.382;2023-04-16T15:46:03;10.80;99.90
20070;DHT22;10195;50.868;4.382;2023-04-16T15:48:29;10.80;99.90